Time;durP1;ratioP1;P1;durP2;ratioP2;P2;SDS_P1;SDS_P2;PMS_P1;PMS_P2;Temp;Humidity;BMP_temperature;BMP_pressure;BME280_temperature;BME280_humidity;BME280_pressure;Samples;Min_cycle;Max_cycle;Signal;HPM_P1;HPM_P2
2024/04/21 00:00:39;;;;;;;11.52;1.50;;;;;;;9.29;53.45;102384.28;5313799;26;94706;-96
2024/04/21 00:03:05;;;;;;;5.90;1.40;;;;;;;9.27;53.66;102385.03;5313846;26;95074;-95
2024/04/21 00:05:33;;;;;;;10.38;1.48;;;;;;;9.22;53.35;102377.03;5342385;26;98580;-95
2024/04/21 00:07:59;;;;;;;5.28;1.63;;;;;;;9.20;53.49;102386.50;5312549;26;99535;-94
2024/04/21 00:10:25;;;;;;;10.00;2.38;;;;;;;9.18;53.08;102393.38;5313717;26;94742;-96
2024/04/21 00:12:50;;;;;;;9.65;2.33;;;;;;;9.15;53.67;102393.22;5314122;26;94600;-95
2024/04/21 00:15:18;;;;;;;10.38;1.98;;;;;;;9.11;53.53;102373.09;5313026;26;97173;-95
2024/04/21 00:17:46;;;;;;;8.60;2.75;;;;;;;9.09;53.27;102369.53;5313660;26;97808;-96
2024/04/21 00:20:12;;;;;;;9.90;1.88;;;;;;;9.05;53.45;102372.81;5342154;26;94647;-95
2024/04/21 00:22:40;;;;;;;7.55;2.15;;;;;;;9.03;53.44;102366.66;5313421;26;94836;-95
2024/04/21 00:25:05;;;;;;;13.02;1.95;;;;;;;9.00;53.22;102345.69;5312500;26;97254;-95
2024/04/21 00:27:31;;;;;;;11.40;1.80;;;;;;;8.97;53.37;102338.66;5312673;26;98193;-95
2024/04/21 00:30:00;;;;;;;9.90;1.42;;;;;;;8.95;53.43;102336.00;5342345;26;94678;-94
2024/04/21 00:32:25;;;;;;;10.43;1.38;;;;;;;8.92;53.14;102338.47;5342492;26;95015;-95
2024/04/21 00:34:51;;;;;;;6.30;1.48;;;;;;;8.88;53.28;102344.38;5312498;26;98596;-96
2024/04/21 00:37:17;;;;;;;12.40;2.50;;;;;;;8.85;53.55;102344.22;5313454;26;98639;-94
2024/04/21 00:39:45;;;;;;;11.68;2.00;;;;;;;8.82;53.62;102349.28;5342191;26;94691;-95
2024/04/21 00:42:10;;;;;;;8.43;1.90;;;;;;;8.78;53.55;102344.78;5313279;26;94577;-95
2024/04/21 00:44:37;;;;;;;9.57;2.03;;;;;;;8.75;53.53;102345.53;5266423;26;1230048;-95
2024/04/21 00:47:03;;;;;;;9.48;1.95;;;;;;;8.71;53.53;102350.53;5342014;26;97355;-95
2024/04/21 00:49:29;;;;;;;9.88;1.48;;;;;;;8.67;53.63;102336.50;5341999;26;94606;-93
2024/04/21 00:51:56;;;;;;;13.55;2.33;;;;;;;8.64;53.84;102330.28;5312662;26;94914;-92
2024/04/21 00:54:22;;;;;;;11.45;1.63;;;;;;;8.62;53.79;102327.59;5312503;26;98296;-94
2024/04/21 00:56:52;;;;;;;10.07;2.60;;;;;;;8.60;53.89;102321.44;5341392;26;97287;-92
2024/04/21 00:59:18;;;;;;;11.07;2.63;;;;;;;8.55;53.47;102326.44;5342259;26;94570;-92
2024/04/21 01:01:45;;;;;;;11.68;1.73;;;;;;;8.55;53.83;102320.34;5312868;26;94684;-92
2024/04/21 01:04:10;;;;;;;10.93;1.55;;;;;;;8.53;53.92;102325.47;5311885;26;98410;-94
2024/04/21 01:06:36;;;;;;;10.38;1.58;;;;;;;8.54;53.82;102319.47;5311515;26;98659;-95
2024/04/21 01:09:02;;;;;;;13.10;2.03;;;;;;;8.52;54.17;102315.00;5311562;26;94850;-94
2024/04/21 01:11:27;;;;;;;12.98;2.15;;;;;;;8.52;54.09;102309.81;5341563;26;94630;-94
2024/04/21 01:13:53;;;;;;;12.40;1.75;;;;;;;8.51;53.82;102308.91;5312007;26;96626;-95
2024/04/21 01:16:18;;;;;;;11.25;1.67;;;;;;;8.50;53.83;102306.25;5312434;26;97647;-95
2024/04/21 01:18:47;;;;;;;12.35;2.47;;;;;;;8.48;54.02;102305.28;5312209;26;95049;-94
2024/04/21 01:21:14;;;;;;;8.90;2.15;;;;;;;8.47;53.83;102300.94;5312250;26;94882;-94
2024/04/21 01:23:40;;;;;;;12.10;2.05;;;;;;;8.47;53.93;102296.63;5312228;26;98552;-95
2024/04/21 01:26:05;;;;;;;15.10;2.60;;;;;;;8.46;53.93;102302.63;5312859;26;97988;-95
2024/04/21 01:28:31;;;;;;;10.70;1.80;;;;;;;8.45;54.08;102294.75;5311775;26;94691;-95
2024/04/21 01:30:59;;;;;;;12.13;2.75;;;;;;;8.45;54.23;102292.16;5341541;26;94699;-94
2024/04/21 01:33:27;;;;;;;8.45;2.00;;;;;;;8.48;54.43;102293.16;5311639;26;97502;-95
2024/04/21 01:35:53;;;;;;;9.65;1.42;;;;;;;8.49;54.20;102284.56;5340786;26;97023;-94
2024/04/21 01:38:18;;;;;;;11.73;2.15;;;;;;;8.49;54.29;102287.16;5312259;26;94685;-94
2024/04/21 01:40:44;;;;;;;12.60;2.50;;;;;;;8.51;54.17;102287.22;5341437;26;94866;-95
2024/04/21 01:43:10;;;;;;;8.23;1.90;;;;;;;8.52;53.91;102281.19;5311701;26;98092;-94
2024/04/21 01:45:36;;;;;;;9.10;2.25;;;;;;;8.53;54.49;102277.78;5311605;26;97146;-94
2024/04/21 01:48:02;;;;;;;10.73;1.90;;;;;;;8.54;53.96;102264.84;5328479;26;94722;-94
2024/04/21 01:50:28;;;;;;;12.25;1.73;;;;;;;8.53;54.32;102264.78;5312242;26;94961;-94
2024/04/21 01:52:53;;;;;;;8.55;1.45;;;;;;;8.50;53.92;102260.34;5340566;26;99291;-95
2024/04/21 01:55:21;;;;;;;11.43;1.48;;;;;;;8.49;54.03;102257.69;5311793;26;98687;-95
2024/04/21 01:57:48;;;;;;;8.70;1.20;;;;;;;8.47;54.22;102252.41;5302448;26;94721;-96
2024/04/21 02:00:14;;;;;;;8.60;1.55;;;;;;;8.46;54.29;102236.72;5277285;26;94616;-95
2024/04/21 02:02:40;;;;;;;9.57;1.50;;;;;;;8.45;54.16;102237.53;5276498;26;98622;-95
2024/04/21 02:05:05;;;;;;;12.25;2.17;;;;;;;8.45;54.38;102229.75;5305616;26;97345;-95
2024/04/21 02:07:31;;;;;;;6.88;1.17;;;;;;;8.46;54.17;102228.94;5306243;26;94675;-94
2024/04/21 02:09:56;;;;;;;11.70;2.38;;;;;;;8.45;54.15;102211.53;5306275;26;94898;-95
2024/04/21 02:12:22;;;;;;;11.95;2.28;;;;;;;8.44;54.07;102214.97;5305781;26;97172;-95
2024/04/21 02:14:48;;;;;;;13.98;2.25;;;;;;;8.40;53.96;102211.31;5276986;26;98847;-94
2024/04/21 02:17:13;;;;;;;9.82;2.65;;;;;;;8.38;54.27;102203.44;5305982;26;94629;-95
2024/04/21 02:19:39;;;;;;;11.95;2.03;;;;;;;8.37;53.92;102193.84;5275724;26;95056;-94
2024/04/21 02:22:04;;;;;;;10.00;1.48;;;;;;;8.35;54.23;102192.91;5305206;26;97812;-95
2024/04/21 02:24:42;;;;;;;6.70;2.00;;;;;;;8.33;54.15;102180.69;5305474;26;96998;-95
2024/04/21 02:27:07;;;;;;;8.27;1.63;;;;;;;8.34;54.21;102183.34;5305308;26;94629;-95
2024/04/21 02:29:33;;;;;;;10.88;2.10;;;;;;;8.34;54.26;102180.75;5305303;26;94613;-95
2024/04/21 02:31:59;;;;;;;8.90;1.40;;;;;;;8.35;54.30;102177.31;5305521;26;97375;-95
2024/04/21 02:34:24;;;;;;;8.38;2.45;;;;;;;8.38;54.27;102168.78;5276425;26;96993;-94
2024/04/21 02:36:50;;;;;;;8.20;1.50;;;;;;;8.37;54.23;102170.47;5275451;26;94722;-94
2024/04/21 02:39:16;;;;;;;9.65;2.22;;;;;;;8.38;54.56;102166.19;5306182;26;94670;-94
2024/04/21 02:41:41;;;;;;;6.80;2.22;;;;;;;8.39;54.27;102160.13;5305072;26;97307;-92
2024/04/21 02:44:07;;;;;;;12.10;2.33;;;;;;;8.39;54.19;102153.25;5305601;26;98022;-93
2024/04/21 02:46:33;;;;;;;9.43;1.90;;;;;;;8.40;54.43;102159.31;5310966;26;94637;-94
2024/04/21 02:48:59;;;;;;;9.82;1.45;;;;;;;8.44;54.52;102158.66;5341012;26;94862;-93
2024/04/21 02:51:25;;;;;;;13.73;2.30;;;;;;;8.46;54.94;102170.00;5340719;26;98630;-94
2024/04/21 02:53:53;;;;;;;9.77;1.23;;;;;;;8.50;54.51;102174.53;5311770;26;98719;-96
2024/04/21 02:56:19;;;;;;;11.10;1.15;;;;;;;8.51;54.80;102184.09;5312991;26;94642;-95
2024/04/21 02:58:45;;;;;;;11.70;2.17;;;;;;;8.52;54.87;102198.88;5341711;26;94631;-95
2024/04/21 03:01:13;;;;;;;13.27;2.28;;;;;;;8.52;55.31;102184.97;5311340;26;97306;-96
2024/04/21 03:03:48;;;;;;;5.80;1.50;;;;;;;8.51;55.07;102185.81;5314186;26;98496;-96
2024/04/21 03:06:13;;;;;;;5.68;1.23;;;;;;;8.49;55.48;102171.88;5312518;26;94613;-96
2024/04/21 03:08:41;;;;;;;6.55;1.60;;;;;;;8.45;55.15;102170.84;5311783;26;94653;-95
2024/04/21 03:11:07;;;;;;;5.85;1.13;;;;;;;8.42;55.31;102159.38;5312509;26;97305;-96
2024/04/21 03:13:33;;;;;;;8.10;2.13;;;;;;;8.39;55.50;102167.94;5311337;26;97266;-96
2024/04/21 03:16:02;;;;;;;4.45;0.95;;;;;;;8.38;55.42;102168.78;5340815;26;94607;-95
2024/04/21 03:18:28;;;;;;;5.50;2.25;;;;;;;8.37;55.77;102167.84;5340858;26;94973;-95
2024/04/21 03:20:57;;;;;;;8.73;1.35;;;;;;;8.34;55.40;102169.44;5311057;26;98691;-95
2024/04/21 03:23:23;;;;;;;5.57;0.98;;;;;;;8.33;55.59;102172.88;5310842;26;97418;-96
2024/04/21 03:25:48;;;;;;;9.07;1.58;;;;;;;8.32;55.87;102176.28;5340470;26;94560;-96
2024/04/21 03:28:14;;;;;;;6.40;1.13;;;;;;;8.30;56.01;102167.53;5311620;26;94864;-95
2024/04/21 03:30:40;;;;;;;7.85;1.70;;;;;;;8.29;55.95;102169.25;5310374;26;98275;-96
2024/04/21 03:33:05;;;;;;;6.25;1.40;;;;;;;8.27;56.20;102157.91;5310787;26;97441;-95
2024/04/21 03:35:32;;;;;;;3.90;0.98;;;;;;;8.27;55.72;102164.81;5300308;26;94833;-90
2024/04/21 03:37:58;;;;;;;4.35;1.30;;;;;;;8.22;55.90;102168.91;5320406;26;94847;-91
2024/04/21 03:40:24;;;;;;;4.57;1.73;;;;;;;8.19;56.20;102157.56;5277173;26;99509;-91
2024/04/21 03:42:50;;;;;;;4.65;1.08;;;;;;;8.17;55.83;102160.94;5296209;26;98034;-90
2024/04/21 03:45:18;;;;;;;3.67;1.33;;;;;;;8.12;55.98;102157.25;5304275;26;94758;-89
2024/04/21 03:47:43;;;;;;;4.40;1.00;;;;;;;8.10;56.20;102164.09;5324291;26;94925;-88
2024/04/21 03:50:09;;;;;;;6.07;0.95;;;;;;;8.07;56.11;102154.44;5291539;26;98307;-89
2024/04/21 03:52:35;;;;;;;4.43;1.55;;;;;;;8.06;56.14;102160.47;5325441;26;97089;-89
2024/04/21 03:55:00;;;;;;;6.32;1.08;;;;;;;8.04;56.22;102161.19;5315819;26;94788;-89
2024/04/21 03:57:29;;;;;;;6.45;1.20;;;;;;;8.00;56.48;102158.50;5286347;26;94943;-88
2024/04/21 03:59:55;;;;;;;5.70;0.85;;;;;;;7.96;56.05;102156.56;5320025;26;98201;-89
2024/04/21 04:02:21;;;;;;;3.42;0.80;;;;;;;7.93;56.29;102155.53;5318858;26;97220;-89
2024/04/21 04:04:46;;;;;;;6.97;1.40;;;;;;;7.89;56.32;102154.50;5280478;26;94784;-91
2024/04/21 04:07:12;;;;;;;6.57;1.63;;;;;;;7.88;56.45;102151.84;5307679;26;94996;-91
2024/04/21 04:09:39;;;;;;;5.22;1.50;;;;;;;7.87;56.38;102165.66;5289713;26;97737;-91
2024/04/21 04:12:05;;;;;;;5.80;1.10;;;;;;;7.85;56.68;102154.31;5320663;26;98266;-91
2024/04/21 04:14:31;;;;;;;6.20;1.60;;;;;;;7.82;56.55;102152.47;5313201;26;94729;-95
2024/04/21 04:16:56;;;;;;;7.05;1.02;;;;;;;7.78;56.55;102156.63;5275603;26;95025;-95
2024/04/21 04:19:22;;;;;;;4.18;1.23;;;;;;;7.77;56.77;102154.88;5302741;26;94826;-91
2024/04/21 04:21:52;;;;;;;4.82;1.73;;;;;;;7.76;56.57;102147.88;5308407;26;97319;-91
2024/04/21 04:24:20;;;;;;;4.03;1.65;;;;;;;7.78;56.63;102158.34;5298685;26;94802;-91
2024/04/21 04:26:46;;;;;;;6.18;1.10;;;;;;;7.74;56.62;102159.03;5309600;26;94915;-91
2024/04/21 04:29:12;;;;;;;4.03;0.93;;;;;;;7.72;56.94;102158.97;5313736;26;94965;-91
2024/04/21 04:31:37;;;;;;;5.28;1.33;;;;;;;7.72;56.82;102158.97;5287025;26;97844;-91
2024/04/21 04:34:06;;;;;;;6.20;1.70;;;;;;;7.70;56.76;102158.00;5303322;26;94727;-91
2024/04/21 04:36:33;;;;;;;7.03;1.40;;;;;;;7.71;56.89;102156.28;5318358;26;94918;-91
2024/04/21 04:39:04;;;;;;;4.38;1.27;;;;;;;7.72;57.20;102155.44;5327344;26;98367;-91
2024/04/21 04:41:30;;;;;;;6.63;1.00;;;;;;;7.75;56.96;102164.31;5317951;26;98536;-91
2024/04/21 04:43:58;;;;;;;7.53;1.75;;;;;;;7.77;57.39;102166.94;5323121;26;95100;-90
2024/04/21 04:46:27;;;;;;;7.85;1.10;;;;;;;7.77;57.33;102161.75;5320260;26;95239;-90
2024/04/21 04:48:52;;;;;;;5.43;1.00;;;;;;;7.80;57.69;102173.16;5301096;26;97902;-90
2024/04/21 04:51:23;;;;;;;8.35;1.30;;;;;;;7.85;57.37;102180.31;5277895;26;98549;-91
2024/04/21 04:53:48;;;;;;;8.00;1.23;;;;;;;7.87;57.33;102182.13;5324166;26;94809;-90
2024/04/21 04:56:14;;;;;;;6.63;0.98;;;;;;;7.91;57.61;102189.22;5317745;26;95078;-93
2024/04/21 04:58:40;;;;;;;6.15;1.67;;;;;;;7.95;57.32;102195.47;5292197;26;98420;-90
2024/04/21 05:01:05;;;;;;;4.18;1.40;;;;;;;7.97;57.71;102193.84;5318756;26;98404;-90
2024/04/21 05:03:31;;;;;;;3.47;1.27;;;;;;;7.99;57.42;102200.00;5314184;26;94822;-91
2024/04/21 05:05:56;;;;;;;2.25;1.15;;;;;;;8.01;57.34;102206.16;5321439;26;95018;-90
2024/04/21 05:08:24;;;;;;;3.17;1.30;;;;;;;8.00;57.31;102204.34;5288586;26;98709;-92
2024/04/21 05:10:50;;;;;;;3.25;1.30;;;;;;;7.99;57.21;102198.28;5314047;26;97510;-90
2024/04/21 05:13:18;;;;;;;2.90;1.35;;;;;;;8.00;57.31;102209.53;5311779;26;94846;-91
2024/04/21 05:15:43;;;;;;;2.38;0.80;;;;;;;8.00;57.17;102218.25;5313697;26;95050;-90
2024/04/21 05:18:09;;;;;;;4.43;1.42;;;;;;;8.00;57.30;102226.06;5294251;26;99618;-91
2024/04/21 05:20:35;;;;;;;4.00;0.70;;;;;;;7.98;57.03;102227.66;5288694;26;97980;-89
2024/04/21 05:23:00;;;;;;;1.98;1.30;;;;;;;7.98;57.23;102224.19;5322994;26;94803;-90
2024/04/21 05:25:26;;;;;;;3.00;0.90;;;;;;;7.96;57.38;102242.28;5307674;26;95068;-92
2024/04/21 05:27:51;;;;;;;3.55;1.55;;;;;;;7.95;56.99;102242.22;5291005;26;96576;-90
2024/04/21 05:30:17;;;;;;;4.00;0.98;;;;;;;7.92;57.19;102252.50;5311093;26;98277;-91
2024/04/21 05:32:42;;;;;;;2.00;0.98;;;;;;;7.90;57.31;102259.34;5327596;26;94897;-91
2024/04/21 05:35:10;;;;;;;2.15;0.80;;;;;;;7.87;57.43;102265.25;5315359;26;95195;-91
2024/04/21 05:37:36;;;;;;;1.77;1.08;;;;;;;7.87;57.63;102272.19;5289780;26;96691;-90
2024/04/21 05:40:04;;;;;;;2.45;1.40;;;;;;;7.86;57.71;102280.78;5321779;26;97420;-90
2024/04/21 05:42:42;;;;;;;4.72;1.60;;;;;;;7.85;57.62;102286.81;5328448;26;94835;-89
2024/04/21 05:45:07;;;;;;;3.55;1.58;;;;;;;7.86;57.89;102291.16;5286957;26;95556;-90
2024/04/21 05:47:33;;;;;;;2.03;1.02;;;;;;;7.89;57.70;102300.00;5305751;26;98183;-91
2024/04/21 05:49:58;;;;;;;2.20;1.55;;;;;;;7.91;57.71;102306.16;5312253;26;95587;-92
2024/04/21 05:52:24;;;;;;;2.83;1.08;;;;;;;7.92;58.04;102313.13;5304421;26;95065;-89
2024/04/21 05:54:49;;;;;;;3.65;1.70;;;;;;;7.94;58.06;102316.69;5288954;26;95061;-90
2024/04/21 05:57:17;;;;;;;1.75;1.02;;;;;;;7.93;57.82;102324.41;5297832;26;97256;-90
2024/04/21 05:59:45;;;;;;;1.80;1.13;;;;;;;7.95;57.71;102333.16;5318128;26;98363;-91
2024/04/21 06:02:10;;;;;;;2.45;0.85;;;;;;;7.95;57.86;102327.97;5316701;26;94935;-90
2024/04/21 06:04:36;;;;;;;1.67;1.17;;;;;;;7.95;57.84;102336.69;5316138;26;94989;-90
2024/04/21 06:07:01;;;;;;;3.92;1.00;;;;;;;7.97;57.89;102341.94;5321848;26;98993;-91
2024/04/21 06:09:27;;;;;;;2.78;0.80;;;;;;;7.96;58.04;102351.44;5313078;26;98275;-91
2024/04/21 06:11:55;;;;;;;3.20;1.42;;;;;;;7.97;58.04;102360.13;5294544;26;94910;-90
2024/04/21 06:14:21;;;;;;;4.75;1.25;;;;;;;7.97;57.67;102363.63;5319311;26;95357;-89
2024/04/21 06:16:49;;;;;;;2.72;1.25;;;;;;;7.97;58.19;102371.41;5294499;26;98206;-91
2024/04/21 06:19:15;;;;;;;3.85;0.85;;;;;;;7.99;58.16;102377.56;5285518;26;98653;-90
2024/04/21 06:21:41;;;;;;;2.70;0.90;;;;;;;8.03;58.39;102389.00;5317396;26;94840;-91
2024/04/21 06:24:06;;;;;;;5.20;1.50;;;;;;;8.04;57.87;102387.28;5325675;26;94986;-90
2024/04/21 06:26:35;;;;;;;4.97;1.42;;;;;;;8.06;58.06;102391.75;5324530;26;98450;-91
2024/04/21 06:29:01;;;;;;;3.25;1.30;;;;;;;8.07;57.64;102393.50;5296969;26;98441;-91
2024/04/21 06:31:26;;;;;;;3.95;1.13;;;;;;;8.10;57.52;102397.97;5291198;26;94881;-90
2024/04/21 06:33:52;;;;;;;3.22;1.20;;;;;;;8.11;57.92;102408.47;5313042;26;95113;-91
2024/04/21 06:36:17;;;;;;;7.22;1.42;;;;;;;8.14;57.85;102418.97;5266415;26;97480;-91
2024/04/21 06:38:43;;;;;;;2.80;1.63;;;;;;;8.16;57.76;102427.78;5314964;26;96777;-90
2024/04/21 06:41:11;;;;;;;1.63;0.70;;;;;;;8.17;57.46;102421.72;5291594;26;94948;-90
2024/04/21 06:43:39;;;;;;;4.07;1.25;;;;;;;8.20;57.61;102431.41;5296810;26;94958;-90
2024/04/21 06:46:08;;;;;;;3.65;0.80;;;;;;;8.25;57.66;102437.69;5319482;26;97959;-92
2024/04/21 06:48:33;;;;;;;4.00;1.52;;;;;;;8.29;57.46;102446.50;5313012;26;94851;-90
2024/04/21 06:50:59;;;;;;;5.75;0.82;;;;;;;8.33;57.62;102453.66;5282600;26;94784;-91
2024/04/21 06:53:25;;;;;;;4.05;1.70;;;;;;;8.38;57.38;102450.47;5321065;26;94904;-90
2024/04/21 06:55:51;;;;;;;2.70;1.27;;;;;;;8.43;57.58;102465.41;5315541;26;95019;-91
2024/04/21 06:58:18;;;;;;;3.15;1.48;;;;;;;8.45;57.48;102468.97;5324548;26;97780;-91
2024/04/21 07:00:44;;;;;;;3.53;0.90;;;;;;;8.43;57.28;102476.72;5290361;26;94936;-91
2024/04/21 07:03:16;;;;;;;4.97;1.80;;;;;;;8.45;57.43;102479.38;5289903;26;95022;-91
2024/04/21 07:05:48;;;;;;;3.92;1.58;;;;;;;8.46;56.89;102484.66;5275009;26;97468;-90
2024/04/21 07:08:32;;;;;;;5.95;1.30;;;;;;;8.46;56.74;102491.56;5326015;26;98455;-91
2024/04/21 07:10:58;;;;;;;7.47;1.60;;;;;;;8.47;57.00;102496.84;5322726;26;94883;-90
2024/04/21 07:13:25;;;;;;;6.05;2.05;;;;;;;8.48;56.93;102500.34;5318302;26;94850;-92
2024/04/21 07:15:54;;;;;;;5.15;2.13;;;;;;;8.52;57.41;102500.56;5313930;26;98615;-91
2024/04/21 07:18:25;;;;;;;8.35;2.58;;;;;;;8.62;57.36;102498.41;5328251;26;98675;-91
2024/04/21 07:20:58;;;;;;;8.18;2.40;;;;;;;8.76;58.59;102499.94;5299228;26;94882;-90
2024/04/21 07:23:24;;;;;;;9.90;4.43;;;;;;;8.99;57.74;102502.72;5296622;26;95121;-89
2024/04/21 07:25:53;;;;;;;11.27;3.42;;;;;;;9.09;57.03;102511.00;5321966;26;98580;-91
2024/04/21 07:28:20;;;;;;;11.43;3.00;;;;;;;9.20;56.77;102507.97;5313967;26;98467;-92
2024/04/21 07:30:47;;;;;;;7.85;3.78;;;;;;;9.30;57.07;102503.25;5324738;26;94850;-91
2024/04/21 07:33:13;;;;;;;10.27;3.75;;;;;;;9.50;57.88;102500.63;5315253;26;95432;-90
2024/04/21 07:35:38;;;;;;;10.50;3.28;;;;;;;9.80;58.01;102513.19;5270561;26;97483;-91
2024/04/21 07:38:07;;;;;;;10.23;2.47;;;;;;;10.10;57.82;102504.03;5322910;26;95583;-91
2024/04/21 07:40:37;;;;;;;10.45;2.63;;;;;;;10.47;57.84;102504.66;5309637;26;94931;-91
2024/04/21 07:43:06;;;;;;;8.73;2.70;;;;;;;10.85;57.44;102508.78;5292253;26;94944;-90
2024/04/21 07:45:31;;;;;;;5.70;2.85;;;;;;;11.20;56.92;102506.56;5288757;26;97839;-91
2024/04/21 07:47:57;;;;;;;5.43;2.13;;;;;;;11.56;56.26;102510.44;5318696;26;99260;-91
2024/04/21 07:50:23;;;;;;;5.93;1.77;;;;;;;11.92;56.19;102523.03;5275465;26;94720;-91
2024/04/21 07:52:52;;;;;;;6.60;1.98;;;;;;;12.33;56.00;102526.13;5309908;26;94821;-91
2024/04/21 07:55:17;;;;;;;7.20;2.25;;;;;;;12.77;56.12;102519.66;5278726;26;99075;-91
2024/04/21 07:57:43;;;;;;;5.10;1.80;;;;;;;13.18;55.18;102536.56;5319869;26;94884;-90
2024/04/21 08:00:09;;;;;;;7.05;2.13;;;;;;;13.55;54.26;102542.88;5312743;26;94960;-90
2024/04/21 08:02:37;;;;;;;9.45;1.90;;;;;;;13.89;52.81;102529.81;5319280;26;94966;-93
2024/04/21 08:05:03;;;;;;;5.78;2.28;;;;;;;13.89;50.33;102542.94;5306766;26;98412;-91
2024/04/21 08:07:29;;;;;;;6.20;1.90;;;;;;;14.03;51.91;102547.66;5302017;26;98688;-90
2024/04/21 08:09:55;;;;;;;5.82;1.58;;;;;;;14.38;51.53;102539.75;5306685;26;95683;-90
2024/04/21 08:12:34;;;;;;;5.70;1.45;;;;;;;14.77;50.84;102544.19;5315348;26;94700;-91
2024/04/21 08:15:07;;;;;;;4.25;2.10;;;;;;;15.11;49.73;102547.53;5283274;26;97064;-90
2024/04/21 08:17:33;;;;;;;8.80;1.98;;;;;;;15.22;50.19;102553.91;5299868;26;98498;-91
2024/04/21 08:19:59;;;;;;;5.80;1.25;;;;;;;15.66;50.52;102551.25;5341345;26;94714;-91
2024/04/21 08:22:25;;;;;;;9.38;1.70;;;;;;;15.74;47.10;102554.97;5296062;26;94953;-89
2024/04/21 08:24:50;;;;;;;7.55;1.52;;;;;;;15.74;46.53;102562.88;5340312;26;96615;-91
2024/04/21 08:27:18;;;;;;;7.43;2.28;;;;;;;15.69;47.44;102561.84;5315422;26;96004;-91
2024/04/21 08:29:44;;;;;;;6.38;1.33;;;;;;;15.38;44.38;102563.00;5314519;26;95361;-91
2024/04/21 08:32:16;;;;;;;9.07;1.55;;;;;;;14.86;44.21;102562.78;5289102;26;94849;-90
2024/04/21 08:34:41;;;;;;;4.47;1.27;;;;;;;14.48;44.89;102573.25;5324598;26;97397;-87
2024/04/21 08:37:16;;;;;;;8.80;1.77;;;;;;;14.16;45.29;102575.97;5314963;26;95606;-88
2024/04/21 08:39:42;;;;;;;7.70;1.40;;;;;;;14.35;47.56;102573.78;5283783;26;94845;-89
2024/04/21 08:42:09;;;;;;;10.50;1.67;;;;;;;14.99;47.69;102583.22;5344959;26;94808;-89
2024/04/21 08:44:35;;;;;;;8.68;1.50;;;;;;;15.56;46.97;102571.25;5318196;26;98414;-89
2024/04/21 08:47:05;;;;;;;8.13;2.35;;;;;;;15.94;46.18;102578.13;5297976;26;97789;-91
2024/04/21 08:49:31;;;;;;;5.65;1.50;;;;;;;16.13;45.92;102568.78;5297684;26;94821;-89
2024/04/21 08:52:00;;;;;;;7.10;1.50;;;;;;;16.44;45.18;102574.59;5323303;26;94991;-87
2024/04/21 08:54:28;;;;;;;8.75;1.45;;;;;;;16.50;44.71;102572.91;5295227;26;95832;-88
2024/04/21 08:57:01;;;;;;;5.95;1.73;;;;;;;16.69;44.22;102578.47;5270139;26;98127;-91
2024/04/21 08:59:42;;;;;;;;;;;;;;;;;;;;;
2024/04/21 09:02:23;;;;;;;8.05;1.80;;;;;;;17.27;43.47;102570.47;5298885;26;94942;-91
2024/04/21 09:04:50;;;;;;;7.70;1.63;;;;;;;17.44;43.24;102578.63;5282456;26;98731;-91
2024/04/21 09:07:21;;;;;;;9.70;1.88;;;;;;;17.54;41.76;102588.41;5317886;26;95528;-88
2024/04/21 09:09:49;;;;;;;6.45;1.95;;;;;;;17.51;41.77;102585.72;5303030;26;95008;-88
2024/04/21 09:12:22;;;;;;;6.80;1.23;;;;;;;17.50;41.28;102581.31;5308762;26;95290;-92
2024/04/21 09:14:48;;;;;;;8.90;2.10;;;;;;;17.35;40.40;102586.44;5281357;26;98111;-88
2024/04/21 09:17:13;;;;;;;6.15;2.20;;;;;;;17.11;41.43;102591.41;5271720;26;99036;-90
2024/04/21 09:19:39;;;;;;;5.72;1.38;;;;;;;16.94;40.87;102592.91;5316068;26;94867;-89
2024/04/21 09:22:05;;;;;;;6.55;1.75;;;;;;;16.66;39.53;102595.09;5320037;26;95134;-89
2024/04/21 09:24:31;;;;;;;7.57;1.77;;;;;;;16.24;38.79;102592.66;5330956;26;96079;-90
2024/04/21 09:26:59;;;;;;;5.15;1.75;;;;;;;15.84;39.43;102608.63;5311210;26;98564;-91
2024/04/21 09:29:33;;;;;;;9.43;1.60;;;;;;;15.53;40.22;102609.75;5299039;26;95205;-92
2024/04/21 09:32:00;;;;;;;8.73;1.30;;;;;;;15.30;40.23;102606.66;5298636;26;94865;-89
2024/04/21 09:34:30;;;;;;;6.57;1.50;;;;;;;15.15;41.03;102605.47;5302037;26;98738;-90
2024/04/21 09:36:56;;;;;;;6.30;1.00;;;;;;;15.13;42.12;102598.41;5295543;26;98627;-93
2024/04/21 09:39:31;;;;;;;6.03;1.73;;;;;;;15.17;42.08;102600.25;5332668;26;94804;-91
2024/04/21 09:41:58;;;;;;;6.30;1.40;;;;;;;15.31;42.00;102609.31;5318429;26;94820;-94
2024/04/21 09:44:28;;;;;;;7.97;1.90;;;;;;;15.38;41.50;102612.94;5279287;26;98150;-90
2024/04/21 09:46:54;;;;;;;4.93;1.45;;;;;;;15.32;41.13;102605.81;5299946;26;97776;-91
2024/04/21 09:49:21;;;;;;;5.45;1.55;;;;;;;15.20;41.12;102613.44;5315038;26;94717;-93
2024/04/21 09:51:59;;;;;;;3.72;1.23;;;;;;;15.09;40.89;102618.47;5339017;26;94872;-91
2024/04/21 09:54:29;;;;;;;5.20;1.95;;;;;;;15.00;41.36;102623.53;5299022;26;98719;-93
2024/04/21 09:57:06;;;;;;;5.15;1.90;;;;;;;14.96;40.96;102626.94;5307034;26;94831;-93
2024/04/21 09:59:32;;;;;;;4.95;1.38;;;;;;;14.90;40.72;102626.78;5322754;26;95397;-92
2024/04/21 10:02:04;;;;;;;4.78;1.48;;;;;;;14.85;40.92;102629.31;5309661;26;95271;-91
2024/04/21 10:04:30;;;;;;;3.58;1.35;;;;;;;14.84;41.53;102624.91;5338409;26;97388;-91
2024/04/21 10:06:56;;;;;;;4.95;2.28;;;;;;;14.97;41.84;102633.94;5313818;26;98093;-91
2024/04/21 10:09:27;;;;;;;6.57;1.40;;;;;;;15.08;41.78;102626.31;5313474;26;94852;-90
2024/04/21 10:11:53;;;;;;;3.67;1.80;;;;;;;15.18;41.40;102626.56;5289062;26;95097;-91
2024/04/21 10:14:19;;;;;;;8.20;1.40;;;;;;;15.22;41.09;102619.63;5314214;26;99195;-92
2024/04/21 10:16:45;;;;;;;7.57;1.52;;;;;;;15.26;42.07;102624.09;5321014;26;97753;-92
2024/04/21 10:19:12;;;;;;;2.90;1.35;;;;;;;15.38;41.94;102634.88;5321270;26;94764;-93
2024/04/21 10:21:43;;;;;;;3.67;1.65;;;;;;;15.42;40.45;102630.59;5306735;26;94985;-92
2024/04/21 10:24:08;;;;;;;3.10;1.63;;;;;;;15.33;40.18;102630.34;5296632;26;98128;-91
2024/04/21 10:26:34;;;;;;;4.13;1.90;;;;;;;15.30;40.27;102635.56;5327085;26;98443;-90
2024/04/21 10:29:13;;;;;;;5.93;1.30;;;;;;;15.25;40.89;102632.84;5328464;26;95136;-91
2024/04/21 10:31:38;;;;;;;5.20;1.98;;;;;;;15.31;40.65;102638.25;5320645;26;94956;-91
2024/04/21 10:34:05;;;;;;;4.20;1.83;;;;;;;15.36;40.53;102633.94;5296827;26;96104;-89
2024/04/21 10:36:46;;;;;;;4.40;1.58;;;;;;;15.32;39.96;102637.38;5336105;26;95878;-91
2024/04/21 10:39:22;;;;;;;4.60;1.50;;;;;;;15.29;40.37;102644.31;5290228;26;94993;-91
2024/04/21 10:42:00;;;;;;;6.13;2.03;;;;;;;15.38;40.35;102636.59;5303212;26;94764;-90
2024/04/21 10:44:26;;;;;;;4.65;2.33;;;;;;;15.40;39.81;102640.16;5273690;26;98717;-91
2024/04/21 10:46:52;;;;;;;3.28;1.73;;;;;;;15.41;40.01;102640.19;5278744;26;95665;-90
2024/04/21 10:49:17;;;;;;;3.60;1.75;;;;;;;15.48;40.08;102630.69;5320072;26;94884;-91
2024/04/21 10:51:43;;;;;;;3.58;1.80;;;;;;;15.56;40.23;102636.09;5334865;26;95063;-91
2024/04/21 10:54:09;;;;;;;2.90;1.48;;;;;;;15.70;40.97;102639.03;5310260;26;98564;-90
2024/04/21 10:56:36;;;;;;;4.65;1.38;;;;;;;15.88;39.98;102642.06;5329342;26;98535;-92
2024/04/21 10:59:05;;;;;;;5.68;1.20;;;;;;;15.91;39.41;102628.94;5313810;26;95444;-92
2024/04/21 11:01:31;;;;;;;3.47;1.40;;;;;;;15.85;38.56;102634.09;5303615;26;95140;-90
2024/04/21 11:04:01;;;;;;;4.28;2.15;;;;;;;15.67;38.67;102639.84;5327910;26;95693;-91
2024/04/21 11:06:27;;;;;;;6.25;2.28;;;;;;;15.61;39.30;102630.09;5274165;26;95902;-91
2024/04/21 11:08:53;;;;;;;5.63;2.22;;;;;;;15.60;38.91;102636.22;5318774;26;94766;-91
2024/04/21 11:11:18;;;;;;;4.50;1.50;;;;;;;15.42;38.78;102631.47;5285962;26;95085;-91
2024/04/21 11:13:49;;;;;;;3.55;1.42;;;;;;;15.41;40.17;102641.94;5314688;26;95812;-91
2024/04/21 11:16:15;;;;;;;3.22;1.60;;;;;;;15.58;40.79;102627.41;5318078;26;95737;-92
2024/04/21 11:18:41;;;;;;;4.13;1.55;;;;;;;15.83;39.99;102638.44;5322416;26;94826;-90
2024/04/21 11:21:07;;;;;;;5.32;1.98;;;;;;;15.88;39.06;102643.78;5328416;26;95030;-91
2024/04/21 11:23:33;;;;;;;3.55;1.40;;;;;;;15.79;39.27;102645.41;5294055;26;98390;-90
2024/04/21 11:26:00;;;;;;;4.40;1.98;;;;;;;15.83;39.28;102645.44;5311607;26;99216;-90
2024/04/21 11:28:29;;;;;;;3.08;1.33;;;;;;;15.93;39.21;102643.00;5300929;26;94796;-92
2024/04/21 11:31:05;;;;;;;2.75;1.80;;;;;;;16.05;39.66;102641.50;5323834;26;94992;-89